Time;durP1;ratioP1;P1;durP2;ratioP2;P2;SDS_P1;SDS_P2;PMS_P1;PMS_P2;Temp;Humidity;BMP_temperature;BMP_pressure;BME280_temperature;BME280_humidity;BME280_pressure;Samples;Min_cycle;Max_cycle;Signal;HPM_P1;HPM_P2
2023/07/18 00:00:27;;;;;;;3.20;2.00;;;24.20;82.90;;;;;;5037623;28;20575;-59
2023/07/18 00:02:54;;;;;;;3.00;2.70;;;24.20;82.80;;;;;;5043545;28;21122;-52
2023/07/18 00:05:22;;;;;;;2.60;2.00;;;24.20;83.00;;;;;;5046858;28;20470;-51
2023/07/18 00:07:49;;;;;;;1.97;1.70;;;24.20;83.00;;;;;;5039222;28;20947;-60
2023/07/18 00:10:19;;;;;;;2.53;2.20;;;24.20;83.10;;;;;;5043205;28;20505;-63
2023/07/18 00:12:46;;;;;;;2.20;2.00;;;24.20;83.00;;;;;;5038664;28;20467;-49
2023/07/18 00:15:13;;;;;;;2.30;2.10;;;24.20;83.10;;;;;;5054308;28;20457;-59
2023/07/18 00:17:42;;;;;;;2.50;2.30;;;24.20;83.10;;;;;;5053540;28;20460;-51
2023/07/18 00:20:12;;;;;;;4.80;1.93;;;24.20;83.00;;;;;;5054574;28;20450;-60
2023/07/18 00:22:40;;;;;;;2.23;1.90;;;24.20;83.10;;;;;;5048174;28;20502;-55
2023/07/18 00:25:09;;;;;;;3.00;2.40;;;24.20;83.10;;;;;;5052700;28;20978;-50
2023/07/18 00:27:38;;;;;;;2.90;1.80;;;24.20;83.10;;;;;;5058470;28;20470;-51
2023/07/18 00:30:06;;;;;;;2.23;1.77;;;24.20;83.20;;;;;;5054596;28;20464;-61
2023/07/18 00:32:33;;;;;;;2.27;2.07;;;24.10;83.00;;;;;;5059577;28;20466;-54
2023/07/18 00:35:01;;;;;;;2.37;2.17;;;24.10;83.00;;;;;;5054600;28;20474;-62
2023/07/18 00:37:28;;;;;;;2.10;1.90;;;24.10;83.00;;;;;;5053540;28;20464;-52
2023/07/18 00:39:54;;;;;;;2.13;1.93;;;24.10;83.10;;;;;;5054471;28;20469;-55
2023/07/18 00:42:21;;;;;;;2.40;2.20;;;24.10;83.10;;;;;;5050537;28;20477;-61
2023/07/18 00:44:50;;;;;;;2.00;1.90;;;24.10;83.10;;;;;;5058010;28;20472;-50
2023/07/18 00:47:17;;;;;;;2.30;2.07;;;24.10;83.90;;;;;;5047050;28;20958;-57
2023/07/18 00:49:44;;;;;;;2.03;1.67;;;24.10;83.20;;;;;;5055187;28;21036;-52
2023/07/18 00:52:13;;;;;;;2.33;1.93;;;24.10;83.20;;;;;;5049886;28;20557;-55
2023/07/18 00:54:41;;;;;;;2.57;1.80;;;24.10;83.20;;;;;;5046734;28;20549;-61
2023/07/18 00:57:08;;;;;;;2.13;1.90;;;24.10;83.20;;;;;;5047947;28;20549;-54
2023/07/18 00:59:36;;;;;;;2.40;2.10;;;24.00;83.10;;;;;;5049754;28;20797;-51
2023/07/18 01:02:04;;;;;;;4.30;2.10;;;24.00;83.20;;;;;;5046419;28;20492;-58
2023/07/18 01:04:30;;;;;;;1.93;1.60;;;24.00;83.20;;;;;;5044123;28;20515;-49
2023/07/18 01:06:57;;;;;;;2.37;2.10;;;24.00;83.10;;;;;;5045456;28;20465;-53
2023/07/18 01:09:25;;;;;;;2.03;1.87;;;24.00;83.20;;;;;;5046287;28;20457;-52
2023/07/18 01:11:52;;;;;;;2.40;2.20;;;24.00;83.20;;;;;;5048884;28;20458;-49
2023/07/18 01:14:21;;;;;;;1.90;1.60;;;24.00;83.20;;;;;;5046249;28;20450;-48
2023/07/18 01:16:48;;;;;;;2.37;2.17;;;24.00;83.40;;;;;;5044842;28;20458;-55
2023/07/18 01:19:15;;;;;;;2.33;1.77;;;24.00;83.40;;;;;;5042283;28;20478;-50
2023/07/18 01:21:43;;;;;;;2.20;2.00;;;24.00;84.30;;;;;;5043763;28;20501;-50
2023/07/18 01:24:10;;;;;;;1.90;1.70;;;24.00;83.50;;;;;;5048313;28;21046;-50
2023/07/18 01:26:36;;;;;;;4.43;2.47;;;24.00;83.60;;;;;;5047903;28;20462;-50
2023/07/18 01:29:04;;;;;;;2.20;2.00;;;24.00;83.60;;;;;;5048999;28;20998;-57
2023/07/18 01:31:32;;;;;;;2.00;1.67;;;24.00;83.70;;;;;;5048453;28;20469;-51
2023/07/18 01:33:58;;;;;;;1.90;1.70;;;24.00;83.70;;;;;;5046630;28;20464;-55
2023/07/18 01:36:28;;;;;;;2.80;2.40;;;24.00;83.80;;;;;;5040827;28;21204;-55
2023/07/18 01:38:57;;;;;;;2.83;2.20;;;24.00;83.90;;;;;;5044111;28;21048;-50
2023/07/18 01:41:24;;;;;;;3.10;2.43;;;24.00;83.90;;;;;;5043877;28;20477;-57
2023/07/18 01:43:50;;;;;;;2.93;2.10;;;24.00;83.90;;;;;;5047070;28;20457;-54
2023/07/18 01:46:17;;;;;;;2.67;1.60;;;24.00;84.00;;;;;;5042221;28;20756;-50
2023/07/18 01:48:44;;;;;;;3.20;2.10;;;23.90;84.00;;;;;;5047068;28;20483;-52
2023/07/18 01:51:10;;;;;;;2.43;2.20;;;24.00;84.00;;;;;;5042282;28;20462;-49
2023/07/18 01:53:37;;;;;;;3.23;1.90;;;23.90;84.00;;;;;;5045032;28;20460;-50
2023/07/18 01:56:06;;;;;;;2.87;1.70;;;23.90;84.00;;;;;;5046007;28;20472;-54
2023/07/18 01:58:32;;;;;;;3.10;1.80;;;23.90;84.10;;;;;;5043656;28;21010;-50
2023/07/18 02:01:03;;;;;;;1.73;1.63;;;23.90;84.00;;;;;;5044406;28;20491;-48
2023/07/18 02:03:29;;;;;;;2.10;1.70;;;23.90;84.00;;;;;;5044028;28;21055;-50
2023/07/18 02:05:56;;;;;;;3.10;2.20;;;23.90;84.00;;;;;;5042775;28;21008;-50
2023/07/18 02:08:23;;;;;;;2.33;1.93;;;23.90;84.10;;;;;;5048010;28;20494;-51
2023/07/18 02:10:50;;;;;;;2.63;1.80;;;23.90;84.00;;;;;;5049692;28;20520;-54
2023/07/18 02:13:18;;;;;;;2.87;2.13;;;23.90;84.00;;;;;;5052949;28;20832;-55
2023/07/18 02:15:45;;;;;;;4.03;2.10;;;23.90;83.90;;;;;;5045001;28;20465;-52
2023/07/18 02:18:11;;;;;;;1.87;1.70;;;23.90;84.00;;;;;;5050222;28;21080;-50
2023/07/18 02:20:38;;;;;;;3.30;2.30;;;23.90;84.70;;;;;;5045102;28;20457;-53
2023/07/18 02:23:05;;;;;;;4.43;2.10;;;23.90;83.90;;;;;;5046576;28;20465;-58
2023/07/18 02:25:31;;;;;;;2.40;1.93;;;23.90;83.90;;;;;;5045535;28;21012;-50
2023/07/18 02:27:58;;;;;;;2.73;2.40;;;23.90;83.90;;;;;;5040711;28;20468;-52
2023/07/18 02:30:26;;;;;;;2.47;1.87;;;23.90;83.90;;;;;;5047089;28;21066;-54
2023/07/18 02:32:53;;;;;;;2.67;2.17;;;23.90;83.80;;;;;;5049358;28;20544;-60
2023/07/18 02:35:21;;;;;;;3.07;2.70;;;23.90;83.80;;;;;;5046075;28;20555;-57
2023/07/18 02:37:48;;;;;;;2.47;2.00;;;23.90;83.80;;;;;;5045971;28;20468;-53
2023/07/18 02:40:17;;;;;;;1.57;1.47;;;23.90;83.90;;;;;;5048273;28;20472;-55
2023/07/18 02:42:44;;;;;;;2.70;2.10;;;23.90;83.80;;;;;;5048070;28;20491;-52
2023/07/18 02:45:11;;;;;;;2.70;2.00;;;23.90;83.80;;;;;;5050095;28;20450;-58
2023/07/18 02:47:40;;;;;;;2.23;2.03;;;23.80;83.60;;;;;;5054841;28;20920;-55
2023/07/18 02:50:08;;;;;;;2.60;2.00;;;23.80;83.70;;;;;;5053538;28;20453;-54
2023/07/18 02:52:35;;;;;;;2.60;2.40;;;23.80;83.70;;;;;;5048531;28;20552;-55
2023/07/18 02:55:03;;;;;;;2.60;2.23;;;23.80;83.70;;;;;;5046374;28;20968;-51
2023/07/18 02:57:29;;;;;;;2.97;1.67;;;23.80;83.70;;;;;;5050814;28;21032;-53
2023/07/18 02:59:57;;;;;;;2.60;2.40;;;23.80;83.70;;;;;;5051962;28;20469;-59
2023/07/18 03:02:23;;;;;;;3.13;1.90;;;23.80;83.60;;;;;;5042832;28;20477;-52
2023/07/18 03:04:51;;;;;;;2.80;1.97;;;23.80;83.70;;;;;;5040430;28;20462;-58
2023/07/18 03:07:18;;;;;;;2.17;1.80;;;23.80;83.70;;;;;;5044545;28;20814;-55
2023/07/18 03:09:45;;;;;;;2.47;2.27;;;23.80;83.60;;;;;;5051532;28;20480;-53
2023/07/18 03:12:12;;;;;;;3.33;1.90;;;23.80;83.70;;;;;;5056989;28;20452;-55
2023/07/18 03:14:39;;;;;;;3.07;2.37;;;23.80;83.60;;;;;;5057237;28;20469;-54
2023/07/18 03:17:06;;;;;;;3.10;1.90;;;23.80;83.60;;;;;;5058191;28;20467;-59
2023/07/18 03:19:33;;;;;;;2.80;2.50;;;23.80;83.60;;;;;;5047257;28;20506;-53
2023/07/18 03:22:01;;;;;;;2.00;1.80;;;23.80;83.60;;;;;;5042743;28;20808;-54
2023/07/18 03:24:28;;;;;;;2.40;2.20;;;23.80;83.70;;;;;;5045985;28;20782;-50
2023/07/18 03:26:55;;;;;;;2.80;2.57;;;23.80;83.60;;;;;;5048908;28;20533;-54
2023/07/18 03:29:22;;;;;;;2.40;1.87;;;23.80;84.40;;;;;;5053502;28;20457;-52
2023/07/18 03:31:49;;;;;;;2.30;2.10;;;23.80;83.60;;;;;;5051851;28;20462;-51
2023/07/18 03:34:16;;;;;;;2.23;1.83;;;23.70;83.50;;;;;;5052543;28;20446;-49
2023/07/18 03:36:42;;;;;;;2.00;1.80;;;23.70;83.50;;;;;;5052387;28;21005;-54
2023/07/18 03:39:11;;;;;;;2.93;2.00;;;23.70;83.50;;;;;;5050721;28;20465;-58
2023/07/18 03:41:38;;;;;;;2.63;2.43;;;23.80;83.60;;;;;;5046495;28;20506;-56
2023/07/18 03:44:06;;;;;;;2.60;2.20;;;23.70;83.50;;;;;;5051314;28;20527;-56
2023/07/18 03:46:33;;;;;;;2.60;2.40;;;23.70;83.60;;;;;;5046686;28;20465;-56
2023/07/18 03:49:00;;;;;;;2.73;2.13;;;23.80;83.60;;;;;;5044498;28;20488;-55
2023/07/18 03:51:26;;;;;;;2.57;2.20;;;23.70;83.50;;;;;;5042387;28;20477;-61
2023/07/18 03:53:53;;;;;;;2.10;1.73;;;23.70;83.50;;;;;;5042384;28;20470;-54
2023/07/18 03:56:21;;;;;;;4.53;2.27;;;23.70;83.60;;;;;;5044374;28;20465;-56
2023/07/18 03:58:48;;;;;;;2.83;2.47;;;23.70;83.60;;;;;;5045294;28;20465;-57
2023/07/18 04:01:15;;;;;;;2.40;1.83;;;23.70;83.50;;;;;;5039668;28;20457;-57
2023/07/18 04:03:42;;;;;;;2.60;2.07;;;23.70;83.60;;;;;;5047109;28;20480;-50
2023/07/18 04:06:08;;;;;;;3.13;1.80;;;23.70;83.60;;;;;;5045000;28;21063;-50
2023/07/18 04:08:35;;;;;;;2.20;2.00;;;23.70;83.60;;;;;;5043873;28;20453;-55
2023/07/18 04:11:02;;;;;;;3.00;2.17;;;23.70;83.60;;;;;;5043618;28;20457;-55
2023/07/18 04:13:30;;;;;;;2.30;2.10;;;23.70;83.50;;;;;;5044992;28;20454;-58
2023/07/18 04:15:57;;;;;;;2.53;2.33;;;23.70;83.60;;;;;;5047230;28;20469;-52
2023/07/18 04:18:24;;;;;;;3.13;1.97;;;23.60;83.40;;;;;;5043197;28;20469;-54
2023/07/18 04:20:58;;;;;;;2.03;1.73;;;23.60;83.40;;;;;;5042925;28;20470;-55
2023/07/18 04:23:25;;;;;;;1.63;1.50;;;23.60;83.50;;;;;;5040598;28;20480;-51
2023/07/18 04:25:57;;;;;;;1.87;1.70;;;23.60;83.40;;;;;;5046650;28;21091;-52
2023/07/18 04:28:24;;;;;;;2.23;2.03;;;23.60;83.50;;;;;;5049581;28;20957;-55
2023/07/18 04:30:52;;;;;;;2.57;2.10;;;23.60;83.50;;;;;;5044605;28;20548;-56
2023/07/18 04:33:19;;;;;;;2.27;2.07;;;23.60;83.50;;;;;;5045734;28;21237;-50
2023/07/18 04:35:46;;;;;;;2.10;1.90;;;23.60;83.50;;;;;;5044125;28;20481;-51
2023/07/18 04:38:13;;;;;;;3.53;2.07;;;23.60;83.50;;;;;;5043251;28;20460;-54
2023/07/18 04:40:40;;;;;;;2.30;2.10;;;23.60;83.50;;;;;;5044181;28;20457;-49
2023/07/18 04:43:07;;;;;;;2.20;1.90;;;23.60;83.60;;;;;;5042419;28;20478;-54
2023/07/18 04:45:34;;;;;;;2.43;1.93;;;23.60;83.60;;;;;;5042389;28;20468;-58
2023/07/18 04:48:02;;;;;;;2.60;2.30;;;23.60;83.60;;;;;;5045836;28;20457;-57
2023/07/18 04:50:29;;;;;;;2.67;1.60;;;23.60;83.60;;;;;;5052267;28;20456;-60
2023/07/18 04:52:56;;;;;;;2.50;2.30;;;23.60;83.70;;;;;;5047113;28;21026;-53
2023/07/18 04:55:23;;;;;;;2.33;1.80;;;23.60;83.80;;;;;;5043374;28;20450;-54
2023/07/18 04:57:50;;;;;;;2.20;1.90;;;23.60;83.70;;;;;;5047868;28;20553;-53
2023/07/18 05:00:17;;;;;;;2.53;1.93;;;23.60;83.70;;;;;;5049671;28;20472;-53
2023/07/18 05:02:44;;;;;;;2.13;1.93;;;23.60;83.70;;;;;;5054305;28;21019;-53
2023/07/18 05:05:13;;;;;;;2.50;2.23;;;23.60;83.70;;;;;;5048067;28;20458;-57
2023/07/18 05:07:41;;;;;;;2.40;1.97;;;23.60;83.70;;;;;;5048606;28;20829;-55
2023/07/18 05:10:08;;;;;;;2.50;2.20;;;23.60;83.70;;;;;;5051172;28;20971;-56
2023/07/18 05:12:35;;;;;;;3.80;2.00;;;23.60;83.80;;;;;;5047645;28;20454;-54
2023/07/18 05:15:02;;;;;;;2.80;2.13;;;23.60;83.80;;;;;;5045519;28;21097;-51
2023/07/18 05:17:29;;;;;;;2.07;1.90;;;23.60;83.80;;;;;;5044713;28;20456;-51
2023/07/18 05:19:55;;;;;;;2.47;2.10;;;23.60;83.90;;;;;;5043180;28;20575;-56
2023/07/18 05:22:24;;;;;;;2.47;1.70;;;23.60;83.90;;;;;;5045283;28;20994;-51
2023/07/18 05:24:50;;;;;;;1.97;1.77;;;23.60;84.00;;;;;;5046046;28;20953;-58
2023/07/18 05:27:17;;;;;;;2.23;2.00;;;23.60;84.00;;;;;;5046801;28;20471;-58
2023/07/18 05:29:45;;;;;;;2.30;1.83;;;23.60;84.00;;;;;;5046285;28;21045;-53
2023/07/18 05:32:12;;;;;;;2.37;2.17;;;23.60;84.00;;;;;;5045326;28;21060;-57
2023/07/18 05:34:38;;;;;;;2.30;2.10;;;23.60;84.00;;;;;;5042346;28;20465;-57
2023/07/18 05:37:06;;;;;;;2.20;2.00;;;23.60;84.00;;;;;;5043976;28;20548;-48
2023/07/18 05:39:34;;;;;;;2.20;2.00;;;23.60;84.10;;;;;;5040897;28;20468;-55
2023/07/18 05:42:00;;;;;;;2.10;1.90;;;23.60;84.10;;;;;;5041143;28;20476;-55
2023/07/18 05:44:27;;;;;;;1.97;1.87;;;23.60;84.10;;;;;;5038635;28;20465;-58
2023/07/18 05:46:54;;;;;;;2.13;1.93;;;23.60;84.20;;;;;;5036701;28;21087;-57
2023/07/18 05:49:20;;;;;;;2.63;1.90;;;23.60;84.20;;;;;;5038255;28;20633;-51
2023/07/18 05:51:47;;;;;;;3.63;1.97;;;23.60;84.20;;;;;;5039547;28;20921;-55
2023/07/18 05:54:14;;;;;;;4.20;2.33;;;23.60;84.20;;;;;;5035493;28;20458;-57
2023/07/18 05:56:42;;;;;;;2.27;2.00;;;23.60;84.20;;;;;;5036718;28;20461;-59
2023/07/18 05:59:09;;;;;;;3.40;2.00;;;23.60;84.20;;;;;;5036379;28;20560;-55
2023/07/18 06:01:35;;;;;;;2.93;2.00;;;23.60;84.00;;;;;;5032353;28;20461;-54
2023/07/18 06:04:03;;;;;;;2.27;1.90;;;23.60;83.80;;;;;;5046972;28;20884;-55
2023/07/18 06:06:32;;;;;;;2.63;1.83;;;23.60;83.90;;;;;;5047600;28;21020;-53
2023/07/18 06:08:59;;;;;;;2.10;1.90;;;23.60;84.00;;;;;;5043850;28;21045;-63
2023/07/18 06:11:25;;;;;;;3.60;2.67;;;23.60;83.90;;;;;;5046042;28;20531;-54
2023/07/18 06:13:53;;;;;;;2.60;1.90;;;23.60;83.90;;;;;;5044311;28;20909;-55
2023/07/18 06:16:20;;;;;;;2.67;1.90;;;23.60;83.70;;;;;;5043189;28;20458;-59
2023/07/18 06:18:47;;;;;;;2.53;2.30;;;23.60;83.60;;;;;;5041433;28;20466;-58
2023/07/18 06:21:15;;;;;;;5.20;2.03;;;23.60;83.50;;;;;;5040719;28;20580;-55
2023/07/18 06:23:42;;;;;;;3.27;2.53;;;23.60;83.60;;;;;;5038441;28;20480;-58
2023/07/18 06:26:09;;;;;;;4.57;2.53;;;23.60;83.70;;;;;;5037377;28;20484;-54
2023/07/18 06:28:35;;;;;;;3.50;2.60;;;23.70;83.80;;;;;;5039300;28;20455;-59
2023/07/18 06:31:03;;;;;;;4.13;2.83;;;23.70;83.70;;;;;;5044602;28;20940;-57
2023/07/18 06:33:31;;;;;;;2.43;2.00;;;23.70;83.80;;;;;;5041555;28;20469;-56
2023/07/18 06:35:58;;;;;;;3.40;2.40;;;23.70;83.60;;;;;;5036748;28;20479;-55
2023/07/18 06:38:26;;;;;;;4.63;2.40;;;23.70;83.50;;;;;;5038993;28;20480;-56
2023/07/18 06:40:52;;;;;;;2.97;2.60;;;23.70;83.30;;;;;;5041761;28;20572;-51
2023/07/18 06:43:19;;;;;;;3.83;2.37;;;23.70;83.30;;;;;;5046146;28;20483;-55
2023/07/18 06:45:46;;;;;;;6.10;3.23;;;23.70;83.10;;;;;;5047491;28;20465;-53
2023/07/18 06:48:15;;;;;;;2.60;2.40;;;23.70;83.50;;;;;;5042472;28;20453;-57
2023/07/18 06:50:45;;;;;;;3.97;2.60;;;23.80;83.30;;;;;;5044583;28;20550;-51
2023/07/18 06:53:12;;;;;;;4.23;2.33;;;23.80;83.40;;;;;;5042262;28;20466;-52
2023/07/18 06:55:41;;;;;;;4.90;2.30;;;23.80;83.00;;;;;;5044639;28;20540;-55
2023/07/18 06:58:09;;;;;;;3.60;2.30;;;23.80;82.90;;;;;;5044740;28;20476;-53
2023/07/18 07:00:36;;;;;;;3.50;2.47;;;23.80;83.90;;;;;;5042295;28;20460;-50
2023/07/18 07:03:03;;;;;;;3.43;2.50;;;23.80;83.60;;;;;;5040112;28;20559;-58
2023/07/18 07:05:31;;;;;;;3.10;2.30;;;23.80;83.40;;;;;;5041287;28;20553;-55
2023/07/18 07:07:57;;;;;;;2.57;1.93;;;23.80;83.60;;;;;;5042402;28;20476;-53
2023/07/18 07:10:24;;;;;;;5.80;2.10;;;23.80;82.80;;;;;;5037731;28;20453;-56
2023/07/18 07:12:51;;;;;;;2.40;2.20;;;23.80;82.40;;;;;;5044480;28;20635;-52
2023/07/18 07:15:17;;;;;;;3.73;2.30;;;23.80;81.20;;;;;;5044358;28;20460;-53
2023/07/18 07:17:44;;;;;;;8.03;2.40;;;23.70;80.50;;;;;;5046870;28;20468;-59
2023/07/18 07:20:14;;;;;;;4.50;2.73;;;23.70;80.70;;;;;;5049835;28;20457;-58
2023/07/18 07:22:43;;;;;;;6.90;3.03;;;23.70;80.50;;;;;;5045359;28;20512;-49
2023/07/18 07:25:13;;;;;;;4.60;2.20;;;23.70;80.60;;;;;;5049397;28;20469;-54
2023/07/18 07:27:39;;;;;;;6.60;3.13;;;23.60;80.50;;;;;;5047239;28;20552;-54
2023/07/18 07:30:07;;;;;;;4.20;3.60;;;23.60;80.60;;;;;;5044747;28;20459;-58
2023/07/18 07:32:34;;;;;;;4.37;2.80;;;23.60;80.40;;;;;;5043482;28;20453;-61
2023/07/18 07:35:01;;;;;;;4.03;2.47;;;23.60;80.70;;;;;;5045201;28;20488;-56
2023/07/18 07:37:27;;;;;;;4.53;2.60;;;23.60;80.30;;;;;;5032690;28;20464;-55
2023/07/18 07:39:55;;;;;;;4.40;2.90;;;23.60;80.90;;;;;;5048733;28;20491;-56
2023/07/18 07:42:22;;;;;;;3.50;2.67;;;23.60;81.00;;;;;;5048651;28;20453;-52
2023/07/18 07:44:49;;;;;;;5.13;2.80;;;23.60;80.90;;;;;;5050773;28;20979;-58
2023/07/18 07:47:16;;;;;;;5.13;2.80;;;23.60;80.90;;;;;;5041246;28;20564;-57
2023/07/18 07:49:42;;;;;;;5.63;3.10;;;23.60;81.10;;;;;;5046162;28;20461;-55
2023/07/18 07:52:09;;;;;;;2.93;1.87;;;23.50;79.40;;;;;;5046354;28;20496;-54
2023/07/18 07:54:36;;;;;;;7.17;2.40;;;23.50;79.80;;;;;;5047318;28;20484;-53
2023/07/18 07:57:05;;;;;;;5.53;2.47;;;23.50;79.40;;;;;;5045719;28;20947;-52
2023/07/18 07:59:32;;;;;;;5.90;3.00;;;23.50;79.00;;;;;;5045447;28;20481;-54
2023/07/18 08:01:58;;;;;;;4.37;2.37;;;23.50;78.90;;;;;;5044938;28;20460;-56
2023/07/18 08:04:25;;;;;;;7.13;2.43;;;23.50;78.80;;;;;;5042167;28;20688;-61
2023/07/18 08:06:55;;;;;;;7.83;2.47;;;23.50;78.60;;;;;;5040310;28;21056;-51
2023/07/18 08:09:22;;;;;;;3.90;2.30;;;23.50;78.90;;;;;;5040991;28;20453;-59
2023/07/18 08:11:49;;;;;;;3.87;2.30;;;23.50;78.90;;;;;;5044237;28;20627;-50
2023/07/18 08:14:18;;;;;;;4.53;2.50;;;23.50;79.00;;;;;;5049358;28;20825;-55
2023/07/18 08:16:44;;;;;;;5.03;2.23;;;23.50;79.20;;;;;;5053395;28;20451;-59
2023/07/18 08:19:12;;;;;;;4.23;2.50;;;23.50;79.20;;;;;;5048928;28;21000;-61
2023/07/18 08:21:38;;;;;;;2.83;2.60;;;23.40;78.30;;;;;;5039129;28;20454;-55
2023/07/18 08:24:06;;;;;;;3.20;2.43;;;23.50;78.70;;;;;;5037225;28;21030;-58
2023/07/18 08:26:33;;;;;;;4.23;1.97;;;23.50;78.80;;;;;;5037584;28;20454;-59
2023/07/18 08:29:00;;;;;;;8.20;2.37;;;23.50;78.60;;;;;;5041192;28;20469;-54
2023/07/18 08:31:28;;;;;;;4.90;2.17;;;23.50;78.40;;;;;;5040490;28;20471;-58
2023/07/18 08:33:54;;;;;;;4.93;2.77;;;23.40;78.50;;;;;;5043567;28;20461;-54
2023/07/18 08:36:22;;;;;;;4.20;2.30;;;23.40;78.70;;;;;;5036517;28;20580;-60
2023/07/18 08:38:50;;;;;;;3.00;2.70;;;23.40;78.70;;;;;;5045553;28;20950;-56
2023/07/18 08:41:18;;;;;;;3.40;2.40;;;23.50;78.90;;;;;;5042784;28;20460;-51
2023/07/18 08:43:46;;;;;;;2.67;2.23;;;23.50;79.10;;;;;;5050954;28;20951;-49
2023/07/18 08:46:14;;;;;;;2.13;1.60;;;23.50;78.90;;;;;;5047458;28;20528;-52
2023/07/18 08:48:44;;;;;;;2.83;1.73;;;23.50;77.40;;;;;;5044148;28;20482;-51
2023/07/18 08:51:11;;;;;;;2.40;2.00;;;23.50;78.60;;;;;;5036779;28;20464;-54
2023/07/18 08:53:39;;;;;;;4.40;2.10;;;23.50;79.00;;;;;;5035001;28;20465;-57
2023/07/18 08:56:08;;;;;;;4.40;2.57;;;23.50;79.00;;;;;;5040682;28;20463;-58
2023/07/18 08:58:36;;;;;;;3.00;1.90;;;23.50;78.60;;;;;;5040042;28;20556;-54
2023/07/18 09:01:03;;;;;;;2.67;2.47;;;23.50;78.70;;;;;;5038457;28;20458;-52
2023/07/18 09:03:30;;;;;;;3.30;2.00;;;23.50;78.80;;;;;;5039008;28;20486;-49
2023/07/18 09:06:01;;;;;;;3.40;2.10;;;23.50;78.90;;;;;;5041625;28;20850;-53
2023/07/18 09:08:28;;;;;;;2.80;1.93;;;23.50;78.70;;;;;;5038043;28;20473;-54
2023/07/18 09:11:02;;;;;;;3.70;2.00;;;23.50;78.50;;;;;;5034371;28;20465;-50
2023/07/18 09:13:29;;;;;;;4.17;2.30;;;23.50;78.80;;;;;;5039417;28;20465;-54
2023/07/18 09:15:55;;;;;;;6.20;2.00;;;23.50;78.50;;;;;;5043928;28;20467;-57
2023/07/18 09:18:23;;;;;;;3.33;1.70;;;23.50;77.50;;;;;;5044110;28;20950;-50
2023/07/18 09:20:55;;;;;;;2.83;1.50;;;23.50;76.40;;;;;;5043125;28;20926;-60
2023/07/18 09:23:23;;;;;;;3.43;1.63;;;23.40;75.20;;;;;;5041714;28;20988;-53
2023/07/18 09:25:50;;;;;;;3.30;1.47;;;23.40;74.90;;;;;;5044154;28;20458;-56
2023/07/18 09:28:17;;;;;;;2.70;1.37;;;23.40;74.30;;;;;;5041538;28;20571;-54
2023/07/18 09:30:43;;;;;;;1.97;1.30;;;23.40;73.00;;;;;;5035211;28;20835;-49
2023/07/18 09:33:10;;;;;;;2.03;1.33;;;23.40;72.80;;;;;;5043679;28;20465;-54
2023/07/18 09:35:37;;;;;;;5.73;1.83;;;23.30;71.10;;;;;;5042843;28;21048;-54
2023/07/18 09:38:06;;;;;;;2.43;1.40;;;23.30;70.60;;;;;;5043099;28;20586;-53
2023/07/18 09:40:35;;;;;;;2.10;1.40;;;23.30;70.90;;;;;;5039039;28;20480;-53
2023/07/18 09:43:03;;;;;;;3.17;1.60;;;23.30;71.40;;;;;;5044280;28;20479;-57
2023/07/18 09:45:30;;;;;;;3.63;1.60;;;23.30;71.70;;;;;;5042475;28;20540;-54
2023/07/18 09:47:58;;;;;;;2.03;1.33;;;23.30;70.90;;;;;;5044359;28;20480;-56
2023/07/18 09:50:28;;;;;;;4.57;1.37;;;23.30;71.60;;;;;;5042567;28;20488;-56
2023/07/18 09:52:58;;;;;;;1.93;1.27;;;23.30;71.40;;;;;;5043827;28;20465;-56
2023/07/18 09:55:26;;;;;;;8.00;2.07;;;23.20;71.20;;;;;;5042743;28;20462;-58
2023/07/18 09:57:56;;;;;;;2.73;1.60;;;23.30;71.50;;;;;;5044662;28;20822;-48
2023/07/18 10:00:24;;;;;;;4.63;1.80;;;23.20;71.00;;;;;;5042687;28;20488;-54
2023/07/18 10:02:52;;;;;;;3.10;1.63;;;23.20;71.50;;;;;;5043916;28;20965;-50
2023/07/18 10:05:20;;;;;;;6.33;1.80;;;23.20;71.00;;;;;;5042119;28;20484;-53
2023/07/18 10:07:47;;;;;;;5.03;1.40;;;23.30;71.10;;;;;;5043651;28;20464;-53
2023/07/18 10:10:14;;;;;;;3.23;2.00;;;23.20;70.40;;;;;;5043231;28;20831;-58
2023/07/18 10:13:00;;;;;;;6.23;1.87;;;23.20;70.60;;;;;;5045958;28;20466;-57
2023/07/18 10:15:27;;;;;;;2.13;1.27;;;23.20;71.00;;;;;;5046803;28;20462;-55
2023/07/18 10:17:54;;;;;;;3.60;1.47;;;23.20;70.40;;;;;;5050461;28;20457;-53
2023/07/18 10:20:23;;;;;;;3.47;1.27;;;23.20;70.60;;;;;;5047190;28;20825;-54
2023/07/18 10:22:56;;;;;;;2.80;1.60;;;23.20;70.70;;;;;;5045188;28;20465;-57
2023/07/18 10:25:25;;;;;;;2.90;1.40;;;23.20;70.70;;;;;;5045972;28;20489;-58
2023/07/18 10:27:51;;;;;;;5.23;1.70;;;23.20;70.40;;;;;;5047842;28;20469;-53
2023/07/18 10:30:21;;;;;;;6.20;1.50;;;23.20;70.30;;;;;;5047804;28;20457;-57
2023/07/18 10:32:52;;;;;;;2.93;1.30;;;23.20;70.10;;;;;;5047742;28;20464;-58
2023/07/18 10:35:20;;;;;;;2.13;1.23;;;23.20;69.90;;;;;;5046655;28;20489;-54
2023/07/18 10:37:52;;;;;;;1.80;1.17;;;23.20;69.40;;;;;;5044736;28;20474;-52
2023/07/18 10:40:37;;;;;;;3.00;1.70;;;23.20;69.00;;;;;;5044004;28;20549;-53
2023/07/18 10:43:05;;;;;;;3.17;1.30;;;23.20;69.10;;;;;;5049677;28;20991;-49
2023/07/18 10:45:37;;;;;;;3.33;1.60;;;23.20;68.90;;;;;;5047961;28;20484;-49
2023/07/18 10:48:11;;;;;;;2.30;1.23;;;23.20;69.30;;;;;;5052436;28;20495;-54
2023/07/18 10:50:38;;;;;;;2.90;1.30;;;23.20;69.30;;;;;;5052571;28;20996;-55
2023/07/18 10:53:04;;;;;;;1.57;1.30;;;23.20;69.20;;;;;;5053946;28;20826;-51
2023/07/18 10:55:31;;;;;;;1.57;1.30;;;23.20;68.90;;;;;;5046422;28;20468;-55
2023/07/18 10:57:58;;;;;;;6.50;1.53;;;23.20;68.50;;;;;;5048537;28;20476;-47
2023/07/18 11:00:25;;;;;;;2.80;1.60;;;23.20;68.40;;;;;;5045676;28;20464;-53
2023/07/18 11:02:53;;;;;;;3.07;1.50;;;23.20;68.50;;;;;;5043952;28;20470;-51
2023/07/18 11:05:21;;;;;;;3.30;1.50;;;23.20;68.10;;;;;;5048069;28;20476;-62
2023/07/18 11:07:48;;;;;;;3.90;1.97;;;23.20;67.90;;;;;;5045923;28;20461;-53
2023/07/18 11:10:16;;;;;;;3.10;1.80;;;23.20;68.20;;;;;;5047158;28;20868;-54
2023/07/18 11:12:43;;;;;;;2.03;1.63;;;23.20;68.60;;;;;;5043357;28;20556;-54
2023/07/18 11:15:12;;;;;;;3.63;1.57;;;23.20;67.40;;;;;;5046956;28;20472;-49
2023/07/18 11:17:39;;;;;;;5.47;2.00;;;23.20;67.80;;;;;;5042311;28;20465;-58
2023/07/18 11:20:08;;;;;;;3.50;1.60;;;23.20;67.40;;;;;;5048727;28;20507;-59
2023/07/18 11:22:35;;;;;;;3.00;1.57;;;23.20;68.10;;;;;;5046851;28;20461;-53
2023/07/18 11:25:02;;;;;;;4.13;1.53;;;23.20;67.90;;;;;;5045389;28;20576;-47
2023/07/18 11:27:31;;;;;;;2.40;2.03;;;23.20;68.50;;;;;;5046511;28;20454;-55
2023/07/18 11:29:58;;;;;;;2.83;1.60;;;23.20;68.50;;;;;;5045630;28;20467;-56
2023/07/18 11:32:38;;;;;;;2.30;2.10;;;23.20;68.40;;;;;;5045985;28;20488;-57
2023/07/18 11:35:08;;;;;;;2.87;1.60;;;23.20;68.50;;;;;;5046525;28;20470;-56
2023/07/18 11:37:35;;;;;;;2.83;1.47;;;23.20;68.40;;;;;;5044733;28;20465;-48
2023/07/18 11:40:02;;;;;;;2.33;1.90;;;23.20;68.50;;;;;;5048408;28;20465;-51
2023/07/18 11:42:45;;;;;;;3.60;1.70;;;23.20;68.80;;;;;;5045197;28;20449;-51
2023/07/18 11:45:12;;;;;;;2.43;1.50;;;23.20;69.60;;;;;;5046719;28;20474;-54
2023/07/18 11:47:43;;;;;;;1.70;1.27;;;23.20;69.60;;;;;;5048290;28;20468;-47
2023/07/18 11:50:12;;;;;;;4.93;1.50;;;23.20;69.60;;;;;;5046978;28;20965;-56
2023/07/18 11:52:40;;;;;;;2.47;1.63;;;23.20;70.00;;;;;;5048926;28;20818;-50
2023/07/18 11:55:08;;;;;;;3.50;1.20;;;23.20;69.90;;;;;;5044401;28;20587;-58
2023/07/18 11:57:34;;;;;;;3.70;1.83;;;23.20;70.30;;;;;;5046036;28;20473;-53
2023/07/18 12:00:02;;;;;;;3.10;1.83;;;23.20;70.10;;;;;;5046809;28;20967;-55
2023/07/18 12:02:28;;;;;;;2.20;1.73;;;23.30;70.40;;;;;;5043143;28;20867;-58
2023/07/18 12:04:55;;;;;;;2.00;1.37;;;23.30;70.40;;;;;;5042819;28;20473;-54
2023/07/18 12:07:23;;;;;;;2.23;1.57;;;23.30;70.50;;;;;;5041242;28;20466;-50
2023/07/18 12:09:50;;;;;;;3.10;1.70;;;23.30;70.70;;;;;;5043640;28;20552;-57
2023/07/18 12:12:16;;;;;;;4.33;1.50;;;23.30;70.70;;;;;;5046077;28;20976;-58
2023/07/18 12:14:44;;;;;;;5.77;1.80;;;23.30;70.50;;;;;;5049236;28;20480;-54
2023/07/18 12:17:11;;;;;;;2.20;1.13;;;23.30;69.80;;;;;;5045509;28;20472;-57
2023/07/18 12:19:38;;;;;;;2.53;1.90;;;23.30;70.20;;;;;;5043580;28;20956;-53
2023/07/18 12:22:05;;;;;;;3.73;1.93;;;23.30;70.40;;;;;;5041706;28;20457;-51
2023/07/18 12:24:33;;;;;;;1.50;1.33;;;23.30;70.60;;;;;;5043287;28;20484;-58
2023/07/18 12:27:00;;;;;;;3.47;2.23;;;23.30;70.60;;;;;;5044136;28;20489;-56
2023/07/18 12:29:26;;;;;;;1.83;1.60;;;23.30;70.50;;;;;;5040416;28;20456;-55
2023/07/18 12:31:53;;;;;;;2.97;1.70;;;23.30;70.50;;;;;;5044758;28;20470;-56
2023/07/18 12:34:20;;;;;;;2.50;1.87;;;23.30;70.60;;;;;;5041861;28;21003;-56
2023/07/18 12:36:47;;;;;;;4.30;1.63;;;23.30;70.90;;;;;;5043373;28;21096;-55
2023/07/18 12:39:15;;;;;;;1.80;1.50;;;23.30;71.00;;;;;;5044078;28;20813;-54
2023/07/18 12:41:43;;;;;;;2.13;1.53;;;23.30;70.70;;;;;;5042899;28;20457;-55
2023/07/18 12:44:15;;;;;;;1.80;1.60;;;23.30;70.90;;;;;;5046620;28;20958;-54
2023/07/18 12:46:41;;;;;;;3.03;1.80;;;23.30;71.10;;;;;;5045363;28;20461;-54
2023/07/18 12:49:09;;;;;;;2.57;1.87;;;23.30;71.10;;;;;;5049175;28;20465;-51